Impacts TAF Board
For situational awareness. Not to be used for flight planning purposes.
IDs:

KSEA - Seattle-Tacoma Intl, WA, US

Issued at 2102 UTC 18 Nov 2018
Updated at 2236 UTC 18 Nov 2018
Potential Impact None Slight Moderate High
Time<<19/11Z 19/12Z 19/13Z 19/14Z 19/15Z 19/16Z 19/17Z 19/18Z 19/19Z 19/20Z 19/21Z 19/22Z 19/23Z>>
Type PRVL PRVL PRVL PRVL PRVL PRVL PRVL PRVL PRVL PRVL PRVL PRVL PRVL
VIS >6 >6 >6 >6 >6 >6 >6 >6 >6 >6 >6 >6 >6
CIG -- -- -- -- -- -- -- -- -- -- -- -- --
Cover SCT SCT SCT SCT SCT SCT SCT SCT SKC SKC SKC SKC SKC
FltCat VFR VFR VFR VFR VFR VFR VFR VFR VFR VFR VFR VFR VFR
WX BCFG BCFG BCFG BCFG BCFG BCFG BCFG BCFG -- -- -- -- --
WDir 40 40 40 40 40 40 40 40 360 360 360 360 360
WSpd 3 3 3 3 3 3 3 3 5 5 5 5 5
WGst -- -- -- -- -- -- -- -- -- -- -- -- --
Raw TAF
KSEA 182102Z 1821/1924 01007KT P6SM SKC
  FM190000 05005KT P6SM SKC
  FM191100 04003KT P6SM BCFG SCT003
  FM191900 36005KT P6SM SKC


METAR Board
Radar Display
Forecast Discussion
For situational awareness. Not to be used for flight planning purposes.